createdAt,value
2023-03-06T00:01:00.466Z,100789.63
2023-03-06T00:03:28.557Z,100783.56
2023-03-06T00:05:58.751Z,100776.63
2023-03-06T00:08:29.117Z,100777.50
2023-03-06T00:10:57.937Z,100773.16
2023-03-06T00:13:26.778Z,100768.81
2023-03-06T00:15:54.617Z,100768.84
2023-03-06T00:18:22.193Z,100765.34
2023-03-06T00:20:49.614Z,100770.56
2023-03-06T00:23:17.302Z,100772.28
2023-03-06T00:25:46.385Z,100765.38
2023-03-06T00:28:15.793Z,100761.91
2023-03-06T00:30:46.074Z,100765.38
2023-03-06T00:33:13.662Z,100756.69
2023-03-06T00:35:41.940Z,100755.84
2023-03-06T00:38:12.095Z,100755.84
2023-03-06T00:40:39.703Z,100748.03
2023-03-06T00:43:07.407Z,100744.56
2023-03-06T00:45:36.317Z,100741.94
2023-03-06T00:48:04.706Z,100741.09
2023-03-06T00:50:32.509Z,100734.16
2023-03-06T00:53:01.014Z,100731.56
2023-03-06T00:55:29.497Z,100734.19
2023-03-06T00:57:57.086Z,100733.28
2023-03-06T01:00:25.873Z,100727.22
2023-03-06T01:02:53.739Z,100722.03
2023-03-06T01:05:23.004Z,100722.00
2023-03-06T01:07:50.639Z,100722.03
2023-03-06T01:10:18.396Z,100715.09
2023-03-06T01:12:46.042Z,100721.16
2023-03-06T01:15:14.335Z,100720.28
2023-03-06T01:17:41.941Z,100709.00
2023-03-06T01:20:14.462Z,100713.34
2023-03-06T01:22:42.918Z,100717.66
2023-03-06T01:25:12.034Z,100717.66
2023-03-06T01:27:39.591Z,100715.06
2023-03-06T01:30:08.286Z,100715.06
2023-03-06T01:32:35.818Z,100709.84
2023-03-06T01:35:03.916Z,100710.75
2023-03-06T01:37:31.806Z,100709.84
2023-03-06T01:39:59.250Z,100707.25
2023-03-06T01:42:26.774Z,100705.53
2023-03-06T01:45:35.097Z,100702.94
2023-03-06T01:48:02.682Z,100701.19
2023-03-06T01:50:30.386Z,100694.28
2023-03-06T01:53:00.944Z,100686.50
2023-03-06T01:55:34.700Z,100684.75
2023-03-06T01:58:09.090Z,100687.34
2023-03-06T02:00:37.868Z,100681.28
2023-03-06T02:03:21.591Z,100676.09
2023-03-06T02:05:49.151Z,100675.19
2023-03-06T02:08:21.611Z,100669.13
2023-03-06T02:11:02.764Z,100668.25
2023-03-06T02:13:31.129Z,100662.19
2023-03-06T02:15:59.340Z,100663.91
2023-03-06T02:18:29.392Z,100657.84
2023-03-06T02:21:06.481Z,100650.91
2023-03-06T02:24:12.679Z,100649.19
2023-03-06T02:26:43.273Z,100656.09
2023-03-06T02:29:11.498Z,100645.69
2023-03-06T02:31:39.175Z,100638.78
2023-03-06T02:34:16.094Z,100638.75
2023-03-06T02:36:48.854Z,100637.03
2023-03-06T02:39:23.827Z,100646.56
2023-03-06T02:41:51.532Z,100643.94
2023-03-06T02:44:24.092Z,100632.69
2023-03-06T02:46:51.699Z,100637.00
2023-03-06T02:49:19.357Z,100639.59
2023-03-06T02:51:46.807Z,100637.00
2023-03-06T02:54:14.623Z,100640.44
2023-03-06T02:56:43.332Z,100638.72
2023-03-06T02:59:12.339Z,100636.13
2023-03-06T03:01:40.644Z,100638.69
2023-03-06T03:04:08.953Z,100640.44
2023-03-06T03:06:37.158Z,100638.69
2023-03-06T03:09:05.002Z,100636.97
2023-03-06T03:11:32.513Z,100633.50
2023-03-06T03:14:00.657Z,100623.97
2023-03-06T03:16:29.495Z,100622.22
2023-03-06T03:18:59.450Z,100621.38
2023-03-06T03:21:28.198Z,100625.69
2023-03-06T03:23:56.355Z,100614.41
2023-03-06T03:26:28.225Z,100611.81
2023-03-06T03:29:05.127Z,100601.41
2023-03-06T03:31:33.047Z,100597.13
2023-03-06T03:34:02.445Z,100605.75
2023-03-06T03:36:33.372Z,100587.59
2023-03-06T03:39:01.058Z,100586.72
2023-03-06T03:41:28.727Z,100583.25
2023-03-06T03:43:56.503Z,100583.25
2023-03-06T03:46:26.324Z,100585.84
2023-03-06T03:48:55.884Z,100574.56
2023-03-06T03:51:23.506Z,100570.25
2023-03-06T03:53:56.777Z,100571.97
2023-03-06T03:56:26.197Z,100565.91
2023-03-06T03:59:02.921Z,100565.03
2023-03-06T04:01:39.129Z,100564.16
2023-03-06T04:04:07.405Z,100561.56
2023-03-06T04:06:35.062Z,100559.84
2023-03-06T04:09:04.550Z,100559.81
2023-03-06T04:11:33.251Z,100558.94
2023-03-06T04:14:01.560Z,100560.69
2023-03-06T04:16:29.675Z,100551.16
2023-03-06T04:18:57.224Z,100553.75
2023-03-06T04:21:25.244Z,100554.59
2023-03-06T04:23:52.989Z,100550.28
2023-03-06T04:26:21.325Z,100550.28
2023-03-06T04:28:49.268Z,100544.22
2023-03-06T04:31:17.267Z,100537.28
2023-03-06T04:33:44.747Z,100535.56
2023-03-06T04:36:34.091Z,100533.81
2023-03-06T04:39:06.613Z,100539.84
2023-03-06T04:41:35.529Z,100540.72
2023-03-06T04:44:03.244Z,100537.28
2023-03-06T04:46:30.872Z,100536.38
2023-03-06T04:48:58.693Z,100541.56
2023-03-06T04:51:26.943Z,100531.22
2023-03-06T04:53:54.542Z,100538.13
2023-03-06T04:56:22.394Z,100537.28
2023-03-06T04:58:50.263Z,100532.09
2023-03-06T05:01:18.612Z,100528.63
2023-03-06T05:03:46.558Z,100533.81
2023-03-06T05:06:14.184Z,100527.75
2023-03-06T05:08:42.246Z,100528.63
2023-03-06T05:11:10.107Z,100524.31
2023-03-06T05:13:37.782Z,100527.78
2023-03-06T05:16:07.043Z,100521.72
2023-03-06T05:18:35.710Z,100513.09
2023-03-06T05:21:04.886Z,100515.72
2023-03-06T05:23:36.386Z,100514.84
2023-03-06T05:26:12.847Z,100510.50
2023-03-06T05:28:41.482Z,100510.50
2023-03-06T05:31:09.714Z,100507.06
2023-03-06T05:33:37.572Z,100508.78
2023-03-06T05:36:09.350Z,100511.41
2023-03-06T05:38:37.260Z,100510.56
2023-03-06T05:41:05.328Z,100504.50
2023-03-06T05:43:32.913Z,100502.75
2023-03-06T05:46:06.148Z,100494.16
2023-03-06T05:48:35.950Z,100495.00
2023-03-06T05:51:05.039Z,100486.34
2023-03-06T05:53:33.093Z,100488.09
2023-03-06T05:56:08.772Z,100482.91
2023-03-06T05:58:37.496Z,100481.19
2023-03-06T06:01:18.255Z,100478.59
2023-03-06T06:03:46.948Z,100479.47
2023-03-06T06:06:15.564Z,100487.25
2023-03-06T06:08:44.122Z,100482.94
2023-03-06T06:11:13.933Z,100486.41
2023-03-06T06:13:41.705Z,100485.53
2023-03-06T06:16:12.631Z,100485.56
2023-03-06T06:18:41.416Z,100491.63
2023-03-06T06:21:12.465Z,100486.44
2023-03-06T06:23:41.677Z,100489.00
2023-03-06T06:26:10.680Z,100494.22
2023-03-06T06:28:38.547Z,100491.63
2023-03-06T06:31:13.344Z,100485.59
2023-03-06T06:33:41.994Z,100485.59
2023-03-06T06:36:21.279Z,100483.84
2023-03-06T06:38:50.054Z,100483.00
2023-03-06T06:44:08.805Z,100479.56
2023-03-06T06:47:20.657Z,100468.31
2023-03-06T06:49:25.487Z,100474.34
2023-03-06T06:51:53.344Z,100486.50
2023-03-06T06:54:22.445Z,100478.69
2023-03-06T06:56:50.338Z,100483.03
2023-03-06T06:59:18.225Z,100481.31
2023-03-06T07:01:46.083Z,100483.03
2023-03-06T07:04:14.823Z,100483.91
2023-03-06T07:06:43.112Z,100490.84
2023-03-06T07:09:12.006Z,100497.75
2023-03-06T07:11:40.829Z,100505.53
2023-03-06T07:14:08.830Z,100512.47
2023-03-06T07:16:36.471Z,100515.06
2023-03-06T07:19:04.397Z,100508.13
2023-03-06T07:21:33.734Z,100514.19
2023-03-06T07:24:01.649Z,100510.72
2023-03-06T07:26:31.489Z,100507.28
2023-03-06T07:29:02.519Z,100507.28
2023-03-06T07:31:30.390Z,100509.91
2023-03-06T07:33:58.088Z,100506.44
2023-03-06T07:36:27.995Z,100509.91
2023-03-06T07:38:55.692Z,100503.84
2023-03-06T07:41:23.517Z,100512.47
2023-03-06T07:43:51.299Z,100505.56
2023-03-06T07:46:19.479Z,100503.84
2023-03-06T07:48:47.124Z,100498.66
2023-03-06T07:51:21.580Z,100496.94
2023-03-06T07:53:50.308Z,100496.91
2023-03-06T07:56:17.972Z,100502.97
2023-03-06T07:58:47.705Z,100496.91
2023-03-06T08:01:19.915Z,100500.34
2023-03-06T08:03:49.942Z,100500.38
2023-03-06T08:06:24.962Z,100505.53
2023-03-06T08:08:55.566Z,100511.63
2023-03-06T08:11:27.103Z,100512.47
2023-03-06T08:13:58.151Z,100517.63
2023-03-06T08:16:30.084Z,100508.09
2023-03-06T08:18:58.561Z,100513.28
2023-03-06T08:21:28.200Z,100515.88
2023-03-06T08:23:56.160Z,100514.09
2023-03-06T08:26:28.496Z,100509.78
2023-03-06T08:29:00.201Z,100511.50
2023-03-06T08:31:32.570Z,100518.44
2023-03-06T08:34:02.722Z,100521.03
2023-03-06T08:36:31.684Z,100514.06
2023-03-06T08:38:59.764Z,100519.25
2023-03-06T08:41:28.213Z,100512.28
2023-03-06T08:43:58.856Z,100508.78
2023-03-06T08:46:29.342Z,100520.88
2023-03-06T08:48:57.374Z,100517.38
2023-03-06T08:51:26.721Z,100518.22
2023-03-06T08:53:55.703Z,100520.78
2023-03-06T08:56:33.925Z,100513.81
2023-03-06T08:59:04.931Z,100518.97
2023-03-06T09:01:41.425Z,100509.41
2023-03-06T09:04:11.814Z,100516.25
2023-03-06T09:06:43.265Z,100501.44
2023-03-06T09:09:12.613Z,100500.50
2023-03-06T09:11:40.602Z,100501.28
2023-03-06T09:14:08.424Z,100501.19
2023-03-06T09:16:36.218Z,100499.41
2023-03-06T09:19:11.320Z,100501.03
2023-03-06T09:21:39.330Z,100499.13
2023-03-06T09:24:07.299Z,100492.03
2023-03-06T09:26:51.723Z,100498.03
2023-03-06T09:29:19.687Z,100497.13
2023-03-06T09:31:47.524Z,100498.91
2023-03-06T09:34:15.508Z,100505.03
2023-03-06T09:36:56.559Z,100507.69
2023-03-06T09:39:27.186Z,100503.25
2023-03-06T09:41:58.232Z,100503.25
2023-03-06T09:44:30.671Z,100503.19
2023-03-06T09:47:33.848Z,100505.75
2023-03-06T09:50:29.454Z,100506.50
2023-03-06T09:53:34.175Z,100503.69
2023-03-06T09:56:20.273Z,100506.06
2023-03-06T09:58:58.016Z,100508.59
2023-03-06T10:01:36.563Z,100505.03
2023-03-06T10:04:37.962Z,100502.25
2023-03-06T10:07:23.234Z,100501.19
2023-03-06T10:10:04.538Z,100501.03
2023-03-06T10:12:52.028Z,100505.28
2023-03-06T10:15:27.167Z,100502.50
2023-03-06T10:17:56.576Z,100499.84
2023-03-06T10:20:36.855Z,100502.28
2023-03-06T10:23:54.612Z,100500.34
2023-03-06T10:26:35.915Z,100495.00
2023-03-06T10:29:20.169Z,100514.09
2023-03-06T10:32:03.038Z,100490.72
2023-03-06T10:34:38.530Z,100496.06
2023-03-06T10:37:19.634Z,100501.25
2023-03-06T10:39:55.341Z,100504.56
2023-03-06T10:42:25.002Z,100499.88
2023-03-06T10:45:12.747Z,100505.56
2023-03-06T10:47:42.236Z,100491.44
2023-03-06T10:50:30.583Z,100496.41
2023-03-06T10:53:16.080Z,100497.06
2023-03-06T10:55:58.742Z,100497.88
2023-03-06T10:58:30.423Z,100495.09
2023-03-06T11:01:03.119Z,100495.84
2023-03-06T11:03:31.328Z,100505.59
2023-03-06T11:06:13.733Z,100507.53
2023-03-06T11:08:44.380Z,100507.66
2023-03-06T11:11:36.447Z,100507.78
2023-03-06T11:14:18.997Z,100499.06
2023-03-06T11:16:53.428Z,100504.09
2023-03-06T11:19:27.340Z,100494.25
2023-03-06T11:22:06.766Z,100495.84
2023-03-06T11:24:44.577Z,100494.97
2023-03-06T11:27:35.132Z,100497.63
2023-03-06T11:30:19.062Z,100493.31
2023-03-06T11:32:56.502Z,100489.03
2023-03-06T11:35:35.354Z,100486.44
2023-03-06T11:38:17.159Z,100489.03
2023-03-06T11:41:01.149Z,100489.03
2023-03-06T11:44:00.706Z,100482.84
2023-03-06T11:46:40.975Z,100483.69
2023-03-06T11:49:25.980Z,100477.63
2023-03-06T11:52:00.600Z,100481.91
2023-03-06T11:54:28.615Z,100474.88
2023-03-06T11:57:07.004Z,100478.41
2023-03-06T12:00:10.983Z,100474.22
2023-03-06T12:03:05.593Z,100469.25
2023-03-06T12:06:08.511Z,100460.66
2023-03-06T12:08:39.972Z,100452.91
2023-03-06T12:11:24.275Z,100456.38
2023-03-06T12:14:22.298Z,100456.47
2023-03-06T12:17:00.609Z,100447.84
2023-03-06T12:19:45.517Z,100448.75
2023-03-06T12:22:39.073Z,100440.81
2023-03-06T12:25:22.929Z,100442.25
2023-03-06T12:28:05.748Z,100432.28
2023-03-06T12:30:40.851Z,100431.31
2023-03-06T12:33:23.263Z,100431.34
2023-03-06T12:36:36.472Z,100426.84
2023-03-06T12:39:46.867Z,100421.97
2023-03-06T12:42:42.376Z,100420.75
2023-03-06T12:45:37.145Z,100416.97
2023-03-06T12:48:17.270Z,100410.88
2023-03-06T12:50:45.944Z,100407.34
2023-03-06T12:53:28.566Z,100414.84
2023-03-06T12:56:00.170Z,100403.53
2023-03-06T12:58:30.507Z,100401.94
2023-03-06T13:01:14.503Z,100409.78
2023-03-06T13:04:32.939Z,100401.06
2023-03-06T13:07:20.052Z,100397.69
2023-03-06T13:10:26.527Z,100397.78
2023-03-06T13:12:57.356Z,100395.22
2023-03-06T13:15:35.732Z,100391.84
2023-03-06T13:18:21.845Z,100387.47
2023-03-06T13:20:52.405Z,100380.31
2023-03-06T13:23:29.024Z,100374.75
2023-03-06T13:26:08.357Z,100376.38
2023-03-06T13:28:48.649Z,100372.78
2023-03-06T13:31:36.354Z,100372.94
2023-03-06T13:34:42.419Z,100370.66
2023-03-06T13:37:14.013Z,100369.13
2023-03-06T13:40:01.628Z,100359.66
2023-03-06T13:42:32.934Z,100372.94
2023-03-06T13:45:23.965Z,100363.44
2023-03-06T13:50:46.824Z,100362.00
2023-03-06T13:54:04.099Z,100351.63
2023-03-06T13:57:20.677Z,100347.31
2023-03-06T14:00:14.358Z,100363.19
2023-03-06T14:03:09.413Z,100357.28
2023-03-06T14:05:47.399Z,100352.19
2023-03-06T14:08:20.626Z,100355.78
2023-03-06T14:11:02.202Z,100349.00
2023-03-06T14:13:47.074Z,100345.72
2023-03-06T14:16:43.802Z,100344.91
2023-03-06T14:19:19.709Z,100346.66
2023-03-06T14:21:57.373Z,100333.59
2023-03-06T14:24:43.704Z,100336.28
2023-03-06T14:27:21.184Z,100338.97
2023-03-06T14:29:49.828Z,100333.88
2023-03-06T14:32:23.109Z,100333.13
2023-03-06T14:34:50.882Z,100325.31
2023-03-06T14:37:25.145Z,100329.56
2023-03-06T14:39:55.219Z,100322.53
2023-03-06T14:42:30.463Z,100325.00
2023-03-06T14:45:16.080Z,100325.72
2023-03-06T14:47:50.280Z,100322.13
2023-03-06T14:50:30.050Z,100315.84
2023-03-06T14:53:04.289Z,100311.38
2023-03-06T14:55:35.905Z,100306.06
2023-03-06T14:58:15.286Z,100306.00
2023-03-06T15:00:54.605Z,100293.88
2023-03-06T15:03:49.154Z,100297.38
2023-03-06T15:06:25.482Z,100298.34
2023-03-06T15:09:20.364Z,100295.00
2023-03-06T15:11:55.575Z,100297.72
2023-03-06T15:14:41.002Z,100293.47
2023-03-06T15:17:17.564Z,100299.69
2023-03-06T15:19:48.632Z,100285.81
2023-03-06T15:22:38.673Z,100288.44
2023-03-06T15:25:26.954Z,100283.38
2023-03-06T15:27:58.927Z,100280.84
2023-03-06T15:30:29.547Z,100271.31
2023-03-06T15:33:18.055Z,100271.19
2023-03-06T15:35:57.311Z,100261.59
2023-03-06T15:38:58.413Z,100264.22
2023-03-06T15:41:36.804Z,100267.75
2023-03-06T15:44:15.084Z,100272.22
2023-03-06T15:46:42.714Z,100268.97
2023-03-06T15:49:17.988Z,100266.63
2023-03-06T15:51:45.620Z,100260.81
2023-03-06T15:54:13.436Z,100272.41
2023-03-06T15:56:45.951Z,100272.66
2023-03-06T15:59:24.920Z,100256.50
2023-03-06T16:01:54.183Z,100242.94
2023-03-06T16:04:21.947Z,100231.00
2023-03-06T16:06:49.610Z,100216.34
2023-03-06T16:09:17.373Z,100225.94
2023-03-06T16:11:45.355Z,100212.91
2023-03-06T16:14:21.264Z,100214.66
2023-03-06T16:16:51.774Z,100216.41
2023-03-06T16:19:26.455Z,100223.41
2023-03-06T16:21:56.778Z,100210.38
2023-03-06T16:24:26.140Z,100212.06
2023-03-06T16:26:58.556Z,100207.69
2023-03-06T16:29:28.465Z,100212.03
2023-03-06T16:31:58.729Z,100209.44
2023-03-06T16:34:26.445Z,100210.28
2023-03-06T16:36:54.430Z,100208.56
2023-03-06T16:39:24.444Z,100199.84
2023-03-06T16:41:52.661Z,100198.19
2023-03-06T16:44:21.374Z,100197.31
2023-03-06T16:46:50.856Z,100206.91
2023-03-06T16:49:24.492Z,100195.59
2023-03-06T16:51:54.665Z,100196.50
2023-03-06T16:54:26.062Z,100196.50
2023-03-06T16:56:53.985Z,100195.69
2023-03-06T16:59:21.628Z,100201.78
2023-03-06T17:01:49.322Z,100187.88
2023-03-06T17:04:17.283Z,100200.91
2023-03-06T17:06:45.025Z,100200.03
2023-03-06T17:09:14.287Z,100196.59
2023-03-06T17:11:44.877Z,100188.78
2023-03-06T17:14:13.196Z,100181.00
2023-03-06T17:16:40.975Z,100178.44
2023-03-06T17:19:15.180Z,100176.69
2023-03-06T17:21:44.362Z,100167.16
2023-03-06T17:24:12.026Z,100162.84
2023-03-06T17:26:40.252Z,100168.03
2023-03-06T17:29:09.286Z,100162.91
2023-03-06T17:31:36.974Z,100160.31
2023-03-06T17:34:04.988Z,100151.66
2023-03-06T17:36:33.068Z,100153.41
2023-03-06T17:39:03.007Z,100159.50
2023-03-06T17:41:32.820Z,100161.28
2023-03-06T17:44:01.860Z,100157.84
2023-03-06T17:46:31.974Z,100162.28
2023-03-06T17:48:59.860Z,100157.09
2023-03-06T17:51:27.668Z,100154.56
2023-03-06T17:53:55.675Z,100161.56
2023-03-06T17:56:23.294Z,100168.53
2023-03-06T17:58:51.147Z,100161.66
2023-03-06T18:01:22.755Z,100165.19
2023-03-06T18:03:51.330Z,100152.19
2023-03-06T18:06:22.034Z,100163.56
2023-03-06T18:08:52.705Z,100154.91
2023-03-06T18:11:22.358Z,100151.53
2023-03-06T18:13:51.050Z,100158.53
2023-03-06T18:16:23.255Z,100149.91
2023-03-06T18:18:56.284Z,100149.09
2023-03-06T18:21:24.912Z,100145.69
2023-03-06T18:23:52.750Z,100143.94
2023-03-06T18:26:28.821Z,100142.25
2023-03-06T18:29:04.601Z,100130.16
2023-03-06T18:31:36.795Z,100131.00
2023-03-06T18:34:11.528Z,100123.25
2023-03-06T18:36:42.468Z,100118.91
2023-03-06T18:39:13.432Z,100125.03
2023-03-06T18:41:41.386Z,100120.69
2023-03-06T18:44:09.232Z,100120.69
2023-03-06T18:46:38.597Z,100110.34
2023-03-06T18:49:07.295Z,100114.63
2023-03-06T18:51:35.616Z,100112.09
2023-03-06T18:54:05.245Z,100104.28
2023-03-06T18:56:33.986Z,100099.94
2023-03-06T18:59:05.848Z,100090.41
2023-03-06T19:01:34.494Z,100092.19
2023-03-06T19:04:04.087Z,100083.53
2023-03-06T19:06:31.856Z,100081.78
2023-03-06T19:09:01.464Z,100078.34
2023-03-06T19:11:31.912Z,100071.44
2023-03-06T19:13:59.831Z,100062.75
2023-03-06T19:16:31.147Z,100065.34
2023-03-06T19:19:00.000Z,100055.81
2023-03-06T19:21:29.005Z,100055.81
2023-03-06T19:23:57.285Z,100045.41
2023-03-06T19:26:26.467Z,100049.78
2023-03-06T19:28:54.231Z,100053.25
2023-03-06T19:31:26.027Z,100046.34
2023-03-06T19:33:56.781Z,100044.59
2023-03-06T19:36:33.273Z,100038.53
2023-03-06T19:39:06.057Z,100037.72
2023-03-06T19:41:34.735Z,100041.16
2023-03-06T19:44:03.338Z,100025.53
2023-03-06T19:46:31.945Z,100037.69
2023-03-06T19:49:03.343Z,100028.16
2023-03-06T19:51:30.978Z,100025.53
2023-03-06T19:53:58.609Z,100016.91
2023-03-06T19:56:29.207Z,100020.41
2023-03-06T19:58:56.965Z,100015.19
2023-03-06T20:01:27.105Z,100009.13
2023-03-06T20:03:59.100Z,100005.66
2023-03-06T20:06:33.349Z,99998.75
2023-03-06T20:09:03.843Z,99994.44
2023-03-06T20:11:32.435Z,99987.50
2023-03-06T20:14:03.760Z,99982.28
2023-03-06T20:16:32.668Z,99981.47
2023-03-06T20:19:01.710Z,99980.59
2023-03-06T20:21:35.343Z,99982.38
2023-03-06T20:24:07.803Z,99975.50
2023-03-06T20:26:37.625Z,99968.56
2023-03-06T20:29:05.376Z,99968.63
2023-03-06T20:31:33.413Z,99954.78
2023-03-06T20:34:01.417Z,99961.78
2023-03-06T20:36:36.765Z,99951.34
2023-03-06T20:39:09.784Z,99952.28
2023-03-06T20:41:38.276Z,99955.81
2023-03-06T20:44:14.730Z,99942.81
2023-03-06T20:46:43.067Z,99942.88
2023-03-06T20:49:13.055Z,99941.19
2023-03-06T20:51:42.198Z,99928.25
2023-03-06T20:54:15.920Z,99926.56
2023-03-06T20:56:47.775Z,99919.66
2023-03-06T20:59:15.732Z,99926.63
2023-03-06T21:01:47.874Z,99919.69
2023-03-06T21:04:16.412Z,99911.88
2023-03-06T21:06:46.839Z,99911.94
2023-03-06T21:09:17.297Z,99884.22
2023-03-06T21:11:45.854Z,99890.31
2023-03-06T21:14:14.291Z,99902.47
2023-03-06T21:16:42.538Z,99902.47
2023-03-06T21:19:10.791Z,99890.31
2023-03-06T21:21:38.664Z,99877.34
2023-03-06T21:24:06.673Z,99895.59
2023-03-06T21:26:34.300Z,99881.69
2023-03-06T21:29:03.060Z,99877.38
2023-03-06T21:31:31.838Z,99873.91
2023-03-06T21:33:59.845Z,99870.44
2023-03-06T21:36:28.260Z,99868.69
2023-03-06T21:38:55.953Z,99865.22
2023-03-06T21:41:30.369Z,99863.47
2023-03-06T21:44:01.514Z,99867.75
2023-03-06T21:46:30.257Z,99854.75
2023-03-06T21:48:58.769Z,99861.66
2023-03-06T21:51:27.002Z,99852.09
2023-03-06T21:53:55.881Z,99858.13
2023-03-06T21:56:27.836Z,99853.72
2023-03-06T21:58:58.050Z,99853.69
2023-03-06T22:01:28.912Z,99845.88
2023-03-06T22:03:58.859Z,99851.91
2023-03-06T22:06:29.261Z,99850.16
2023-03-06T22:08:59.583Z,99836.22
2023-03-06T22:11:31.332Z,99840.50
2023-03-06T22:13:59.235Z,99832.66
2023-03-06T22:16:26.932Z,99828.31
2023-03-06T22:18:54.677Z,99823.94
2023-03-06T22:21:23.404Z,99823.00
2023-03-06T22:24:00.513Z,99822.97
2023-03-06T22:26:29.788Z,99816.00
2023-03-06T22:28:57.695Z,99813.38
2023-03-06T22:31:29.033Z,99813.31
2023-03-06T22:34:00.790Z,99807.22
2023-03-06T22:36:32.973Z,99801.19
2023-03-06T22:39:03.194Z,99798.56
2023-03-06T22:41:31.517Z,99790.69
2023-03-06T22:44:01.842Z,99789.72
2023-03-06T22:46:31.774Z,99787.94
2023-03-06T22:49:00.983Z,99787.03
2023-03-06T22:51:29.684Z,99776.59
2023-03-06T22:53:58.273Z,99784.38
2023-03-06T22:56:25.915Z,99794.78
2023-03-06T22:58:53.627Z,99780.00
2023-03-06T23:01:31.289Z,99788.63
2023-03-06T23:04:02.877Z,99779.06
2023-03-06T23:06:37.587Z,99792.09
2023-03-06T23:09:12.070Z,99786.84
2023-03-06T23:11:58.875Z,99791.16
2023-03-06T23:14:49.538Z,99801.56
2023-03-06T23:17:36.480Z,99787.63
2023-03-06T23:20:23.186Z,99796.28
2023-03-06T23:23:10.132Z,99787.59
2023-03-06T23:25:44.395Z,99786.69
2023-03-06T23:28:12.763Z,99792.72
2023-03-06T23:30:41.586Z,99792.66
2023-03-06T23:33:10.504Z,99792.66
2023-03-06T23:35:39.129Z,99791.84
2023-03-06T23:38:07.365Z,99789.16
2023-03-06T23:40:36.732Z,99790.06
2023-03-06T23:43:04.848Z,99787.38
2023-03-06T23:45:32.698Z,99788.25
2023-03-06T23:48:00.399Z,99794.31
2023-03-06T23:50:28.129Z,99790.88
2023-03-06T23:52:55.954Z,99786.50
2023-03-06T23:55:23.574Z,99796.03
2023-03-06T23:57:51.307Z,99794.31
